• Join FlightAware (Why Join?)
  • Login
  • US Flag 
09:09PM EDT


 

Airport Tracker/Info


-or-


 

Live Flight TrackerFlight Track Log ✈ N415JA ✈ 20-Oct-2013 ✈ KTMB - KTMB

Flight Track Log - Related Links

Times and Time Zones

All times are in EDT time to prevent confusion due to time zone crossing. See the N415JA flight status page for this flight to view local times or setup timezone preferences in your user account.

Time Position Orientation Groundspeed Altitude Reporting Facility
EDT Latitude Longitude Course Direction KTS MPH feet Rate Location/Type
02:14PM 25.6422 -80.4175 86° East 131 151 1,100  Level Miami Center
02:15PM 25.6458 -80.3556 86° East 216 249 2,000 420 Climbing Miami Center
02:16PM 25.6433 -80.2839 92° East 252 290 2,000 1,020 Level Miami Center
02:17PM 25.6367 -80.2100 96° East 272 313 4,000 2,640 Climbing Miami Center
02:18PM 25.6283 -80.1175 96° East 283 326 7,300 3,600 Climbing Miami Center
02:19PM 25.6219 -80.0253 94° East 294 338 11,200 3,420 Climbing Miami Center
02:20PM 25.6133 -79.9375 96° East 294 338 14,200 2,520 Climbing Miami Center
02:21PM 25.6050 -79.8406 95° East 294 338 16,300 2,280 Climbing Miami Center
02:22PM 25.5964 -79.7414 95° East 312 359 18,800 2,340 Climbing Miami Center
02:23PM 25.5858 -79.6372 96° East 324 373 21,000 1,860 Climbing Miami Center
02:24PM 25.5439 -79.5467 117° Southeast 331 381 22,600 960 Climbing Miami Center
02:25PM 25.4394 -79.5328 173° South 299 344 23,000 180 Climbing Miami Center
02:26PM 25.3411 -79.5514 190° South 324 373 23,000 -540 Level Miami Center
02:27PM 25.2931 -79.6583 244° Southwest 303 349 22,000 -1,260 Descending Miami Center
02:28PM 25.2511 -79.7697 247° West 344 396 20,500 -2,040 Descending Miami Center
02:29PM 25.2133 -79.8839 250° West 374 430 18,000 -2,940 Descending Miami Center
02:30PM 25.2050 -79.9892 265° West 374 430 14,700 -3,720 Descending Miami Center
02:31PM 25.2419 -80.0200 323° Northwest 358 412 13,000 -3,300 Descending Miami Center
02:31PM 25.2919 -80.0258 354° North 273 314 11,400 -2,820 Descending Miami Center
02:32PM 25.3389 -80.0731 318° Northwest 311 358 9,600 -2,400 Descending Miami Center
02:32PM 25.3511 -80.0942 303° West 286 329 9,000 -2,040 Descending Miami Center
02:33PM 25.3767 -80.1592 294° West 278 320 7,300 -2,100 Descending Miami Center
02:33PM 25.3847 -80.1708 307° West 286 329 6,900 -2,100 Descending Miami Center
02:34PM 25.4006 -80.2081 295° West 266 306 5,800 -2,040 Descending Miami Center
02:34PM 25.4186 -80.2408 301° West 272 313 4,900 -1,980 Descending Miami Center
02:35PM 25.4344 -80.2850 292° West 247 284 3,600 -1,920 Descending Miami Center
02:35PM 25.4486 -80.3083 304° West 258 297 3,000 -540 Descending Miami Center
02:36PM 25.4894 -80.3394 325° Northwest 237 273 3,000 -300 Level Miami Center
02:36PM 25.5061 -80.3492 332° Northwest 248 285 2,700 -1,020 Descending Miami Center
02:37PM 25.5450 -80.3800 324° Northwest 268 308 2,100 -720 Descending Miami Center
02:37PM 25.5656 -80.3900 336° Northwest 243 280 2,000 -300 Descending Miami Center
02:38PM 25.5919 -80.4231 312° West 186 214 1,800 -420 Descending Miami Center
02:38PM 25.5978 -80.4417 289° West 207 238 1,600 -600 Descending Miami Center
02:39PM 25.6078 -80.4650 295° West 157 181 1,200 -720 Descending Miami Center
02:39PM 25.6244 -80.4631 North 148 170 900 -600 Descending Miami Center
02:40PM 25.6578 -80.4642 358° North 115 132 400 -540 Descending Miami Center
02:42PM 25.6476 -80.4332 90° East  Level Estimated